Time;durP1;ratioP1;P1;durP2;ratioP2;P2;SDS_P1;SDS_P2;PMS_P1;PMS_P2;Temp;Humidity;BMP_temperature;BMP_pressure;BME280_temperature;BME280_humidity;BME280_pressure;Samples;Min_cycle;Max_cycle;Signal;HPM_P1;HPM_P2
2022/03/07 00:01:53;;;;;;;27.98;15.40;;;6.90;49.60;;;;;;5013785;28;20042;-87
2022/03/07 00:04:19;;;;;;;18.98;13.02;;;6.80;50.00;;;;;;5023189;28;20500;-86
2022/03/07 00:06:46;;;;;;;18.85;12.82;;;6.80;50.10;;;;;;5012459;28;20026;-86
2022/03/07 00:09:12;;;;;;;20.23;13.43;;;6.90;49.30;;;;;;5025821;28;20124;-85
2022/03/07 00:11:38;;;;;;;17.40;11.85;;;6.90;49.50;;;;;;5013386;28;20487;-85
2022/03/07 00:14:04;;;;;;;19.25;13.25;;;7.00;49.00;;;;;;5009294;28;20070;-85
2022/03/07 00:16:30;;;;;;;19.20;13.23;;;7.00;48.60;;;;;;5008299;28;20049;-87
2022/03/07 00:18:57;;;;;;;21.67;14.45;;;6.90;48.90;;;;;;5018444;28;20474;-85
2022/03/07 00:21:23;;;;;;;19.75;12.70;;;6.80;49.20;;;;;;5021396;28;20387;-85
2022/03/07 00:23:49;;;;;;;23.40;14.25;;;6.80;49.10;;;;;;5007200;28;20123;-84
2022/03/07 00:26:19;;;;;;;23.27;13.05;;;6.70;49.20;;;;;;5015305;28;20041;-84
2022/03/07 00:28:46;;;;;;;21.02;13.93;;;6.60;49.10;;;;;;5026648;28;20132;-84
2022/03/07 00:31:12;;;;;;;18.30;12.05;;;6.50;49.20;;;;;;5005419;28;20045;-83
2022/03/07 00:33:38;;;;;;;21.50;13.52;;;6.50;49.30;;;;;;5017302;28;20045;-85
2022/03/07 00:36:05;;;;;;;20.95;13.25;;;6.60;48.80;;;;;;5012702;28;20037;-85
2022/03/07 00:38:31;;;;;;;20.05;13.88;;;6.50;49.20;;;;;;5032884;28;20045;-87
2022/03/07 00:40:57;;;;;;;22.45;14.02;;;6.50;49.60;;;;;;5028342;28;20045;-86
2022/03/07 00:43:23;;;;;;;22.00;13.82;;;6.50;49.60;;;;;;5022564;28;20046;-86
2022/03/07 00:45:49;;;;;;;22.42;13.93;;;6.30;50.20;;;;;;5014720;28;20033;-86
2022/03/07 00:48:16;;;;;;;22.95;14.98;;;6.20;49.90;;;;;;5023274;28;20048;-85
2022/03/07 00:50:46;;;;;;;18.45;13.18;;;6.10;50.90;;;;;;5022058;28;20503;-86
2022/03/07 00:53:15;;;;;;;;;;;6.10;50.30;;;;;;5025837;28;20056;-86
2022/03/07 00:55:41;;;;;;;21.15;12.70;;;6.00;51.00;;;;;;5001462;28;19920;-86
2022/03/07 00:58:06;;;;;;;24.58;13.30;;;6.00;51.30;;;;;;5000082;28;20383;-89
2022/03/07 01:00:36;;;;;;;19.17;13.35;;;6.00;51.80;;;;;;5034884;28;20104;-88
2022/03/07 01:03:04;;;;;;;18.65;12.57;;;6.00;52.00;;;;;;4988725;28;20076;-88
2022/03/07 01:05:30;;;;;;;19.00;12.07;;;6.00;51.90;;;;;;4994709;28;20506;-87
2022/03/07 01:07:56;;;;;;;18.60;12.10;;;6.00;51.20;;;;;;4994857;28;20043;-87
2022/03/07 01:10:21;;;;;;;19.67;12.80;;;6.00;51.40;;;;;;4999331;28;20397;-88
2022/03/07 01:12:47;;;;;;;18.92;12.02;;;6.10;51.70;;;;;;5014864;28;20042;-88
2022/03/07 01:15:14;;;;;;;18.95;12.27;;;6.20;51.00;;;;;;5014853;28;20057;-89
2022/03/07 01:17:40;;;;;;;18.08;11.48;;;6.40;49.90;;;;;;5016743;28;20033;-86
2022/03/07 01:20:07;;;;;;;17.70;11.98;;;6.50;50.40;;;;;;5015705;28;20096;-86
2022/03/07 01:22:34;;;;;;;18.65;11.80;;;6.50;49.80;;;;;;5012285;28;20038;-86
2022/03/07 01:25:00;;;;;;;20.15;12.82;;;6.60;49.40;;;;;;5016039;28;20022;-86
2022/03/07 01:27:25;;;;;;;22.25;13.30;;;6.60;48.50;;;;;;5011396;28;20031;-86
2022/03/07 01:29:51;;;;;;;18.02;11.48;;;6.60;48.20;;;;;;5013917;28;20467;-87
2022/03/07 01:32:16;;;;;;;19.63;12.73;;;6.50;48.50;;;;;;5009788;28;20482;-87
2022/03/07 01:34:42;;;;;;;19.23;11.73;;;6.60;48.40;;;;;;5019518;28;20385;-87
2022/03/07 01:37:08;;;;;;;19.30;13.20;;;6.70;48.80;;;;;;5014384;28;20041;-87
2022/03/07 01:39:34;;;;;;;20.48;12.38;;;6.70;47.60;;;;;;5015223;28;20536;-87
2022/03/07 01:41:59;;;;;;;16.52;12.43;;;6.60;48.10;;;;;;5014838;28;20053;-87
2022/03/07 01:44:28;;;;;;;20.88;13.68;;;6.60;47.40;;;;;;5022131;28;20065;-87
2022/03/07 01:46:55;;;;;;;17.27;12.57;;;6.60;48.10;;;;;;5027909;28;20045;-86
2022/03/07 01:49:21;;;;;;;20.10;11.82;;;6.50;48.10;;;;;;5017913;28;20042;-87
2022/03/07 01:51:48;;;;;;;21.80;12.93;;;6.50;48.20;;;;;;5000573;28;21845;-87
2022/03/07 01:54:16;;;;;;;18.38;12.52;;;6.60;47.70;;;;;;5013500;28;20034;-87
2022/03/07 01:56:45;;;;;;;18.50;12.25;;;6.60;47.60;;;;;;5015186;28;20042;-90
2022/03/07 01:59:11;;;;;;;16.77;12.18;;;6.60;47.80;;;;;;5014842;28;20030;-91
2022/03/07 02:01:37;;;;;;;18.38;12.77;;;6.50;47.60;;;;;;5004773;28;20493;-87
2022/03/07 02:04:04;;;;;;;19.67;13.38;;;6.50;47.40;;;;;;5013932;28;20034;-86
2022/03/07 02:06:30;;;;;;;16.23;11.43;;;6.50;48.00;;;;;;5021234;28;20045;-87
2022/03/07 02:08:57;;;;;;;21.35;13.13;;;6.60;47.70;;;;;;5034233;28;20102;-89
2022/03/07 02:11:24;;;;;;;21.77;13.18;;;6.60;47.90;;;;;;4995547;28;20050;-91
2022/03/07 02:13:50;;;;;;;19.48;12.98;;;6.60;47.60;;;;;;4995663;28;20089;-90
2022/03/07 02:16:17;;;;;;;16.98;11.82;;;6.60;47.60;;;;;;4995400;28;20454;-91
2022/03/07 02:18:43;;;;;;;23.35;12.88;;;6.60;47.70;;;;;;5028899;28;20371;-90
2022/03/07 02:21:11;;;;;;;15.57;10.60;;;6.60;47.00;;;;;;5034372;28;20038;-90
2022/03/07 02:23:37;;;;;;;17.67;11.30;;;6.60;47.20;;;;;;5034441;28;20509;-88
2022/03/07 02:26:16;;;;;;;16.95;11.35;;;6.60;47.80;;;;;;5034212;28;20037;-88
2022/03/07 02:28:43;;;;;;;19.73;12.70;;;6.70;47.40;;;;;;5006410;28;20092;-89
2022/03/07 02:31:09;;;;;;;18.20;11.98;;;6.70;47.80;;;;;;4995123;28;20038;-89
2022/03/07 02:33:36;;;;;;;17.67;11.43;;;6.70;47.50;;;;;;4994011;28;20034;-90
2022/03/07 02:36:03;;;;;;;18.98;12.10;;;6.70;47.10;;;;;;4995085;28;20463;-89
2022/03/07 02:38:29;;;;;;;19.20;10.98;;;6.70;47.70;;;;;;4995195;28;20045;-88
2022/03/07 02:40:54;;;;;;;19.55;12.70;;;6.70;47.00;;;;;;4994534;28;20105;-88
2022/03/07 02:43:20;;;;;;;17.40;11.45;;;6.80;46.90;;;;;;4994186;28;20026;-86
2022/03/07 02:45:46;;;;;;;17.17;11.00;;;6.70;47.30;;;;;;4996098;28;20041;-87
2022/03/07 02:48:13;;;;;;;21.23;12.05;;;6.70;47.30;;;;;;4996554;28;20035;-87
2022/03/07 02:50:39;;;;;;;17.77;11.40;;;6.70;46.80;;;;;;5011092;28;20046;-87
2022/03/07 02:53:05;;;;;;;17.90;12.10;;;6.70;47.30;;;;;;5016609;28;20034;-89
2022/03/07 02:55:31;;;;;;;21.33;13.00;;;6.60;47.40;;;;;;5018128;28;20434;-88
2022/03/07 02:57:57;;;;;;;18.83;12.90;;;6.60;47.40;;;;;;5016430;28;20030;-88
2022/03/07 03:00:23;;;;;;;17.35;12.02;;;6.60;47.50;;;;;;5020350;28;20099;-90
2022/03/07 03:02:49;;;;;;;17.63;12.35;;;6.60;47.30;;;;;;5057423;28;20473;-86
2022/03/07 03:05:16;;;;;;;20.10;12.95;;;6.50;47.80;;;;;;5038691;28;20108;-86
2022/03/07 03:07:41;;;;;;;18.48;12.10;;;6.50;47.50;;;;;;5021309;28;20352;-88
2022/03/07 03:10:08;;;;;;;18.15;12.23;;;6.50;47.50;;;;;;5016862;28;20045;-87
2022/03/07 03:12:34;;;;;;;19.10;12.45;;;6.40;48.10;;;;;;5038344;28;20135;-87
2022/03/07 03:15:00;;;;;;;18.58;11.85;;;6.30;47.20;;;;;;5020038;28;20073;-86
2022/03/07 03:17:26;;;;;;;19.77;11.95;;;6.30;47.90;;;;;;5022311;28;20033;-86
2022/03/07 03:19:53;;;;;;;17.30;11.43;;;6.30;47.80;;;;;;5040148;28;20091;-86
2022/03/07 03:22:19;;;;;;;15.55;10.65;;;6.30;47.50;;;;;;5052398;28;20034;-86
2022/03/07 03:24:46;;;;;;;17.48;11.48;;;6.40;48.00;;;;;;5025034;28;20410;-84
2022/03/07 03:27:12;;;;;;;16.95;11.43;;;6.40;47.50;;;;;;5024945;28;20034;-84
2022/03/07 03:29:38;;;;;;;21.63;12.25;;;6.30;47.30;;;;;;5033533;28;20038;-84
2022/03/07 03:32:04;;;;;;;16.02;10.10;;;6.30;48.30;;;;;;5016244;28;20042;-85
2022/03/07 03:34:30;;;;;;;16.33;11.15;;;6.30;47.90;;;;;;5016356;28;20128;-85
2022/03/07 03:36:56;;;;;;;15.38;10.95;;;6.40;48.30;;;;;;5022751;28;20109;-86
2022/03/07 03:39:22;;;;;;;20.98;11.63;;;6.40;48.50;;;;;;5042250;28;20076;-87
2022/03/07 03:41:47;;;;;;;19.58;12.50;;;6.30;47.70;;;;;;5036457;28;20030;-87
2022/03/07 03:44:13;;;;;;;17.92;12.13;;;6.30;48.00;;;;;;5027328;28;20037;-86
2022/03/07 03:46:39;;;;;;;20.40;13.57;;;6.20;48.50;;;;;;5033561;28;20049;-86
2022/03/07 03:49:05;;;;;;;17.23;10.60;;;6.10;48.40;;;;;;5009707;28;20509;-91
2022/03/07 03:51:31;;;;;;;17.63;11.77;;;6.10;48.90;;;;;;5016512;28;20034;-89
2022/03/07 03:53:57;;;;;;;17.45;11.82;;;6.10;48.90;;;;;;4998768;28;20500;-91
2022/03/07 03:56:23;;;;;;;17.90;11.38;;;6.00;49.00;;;;;;5001809;28;20118;-90
2022/03/07 03:58:49;;;;;;;23.75;13.38;;;6.10;49.00;;;;;;5036400;28;20043;-92
2022/03/07 04:01:14;;;;;;;21.13;12.55;;;6.20;49.20;;;;;;5016022;28;20057;-87
2022/03/07 04:03:40;;;;;;;20.38;11.75;;;6.20;48.80;;;;;;5026503;28;20088;-88
2022/03/07 04:06:08;;;;;;;19.83;12.18;;;6.20;48.10;;;;;;5011085;28;20042;-88
2022/03/07 04:08:34;;;;;;;21.60;12.90;;;6.20;48.60;;;;;;4999294;28;20033;-90
2022/03/07 04:11:00;;;;;;;18.75;11.00;;;6.20;49.40;;;;;;4979111;28;20045;-91
2022/03/07 04:13:26;;;;;;;19.40;12.23;;;6.20;48.70;;;;;;4978814;28;20038;-88
2022/03/07 04:15:51;;;;;;;16.88;10.63;;;6.20;49.40;;;;;;5002065;28;20122;-88
2022/03/07 04:18:17;;;;;;;17.35;11.95;;;6.20;48.30;;;;;;5024503;28;20065;-87
2022/03/07 04:20:43;;;;;;;21.60;13.32;;;6.20;49.40;;;;;;5019153;28;20097;-87
2022/03/07 04:23:08;;;;;;;26.15;13.30;;;6.20;49.60;;;;;;5000401;28;20041;-87
2022/03/07 04:25:34;;;;;;;23.38;13.10;;;6.10;49.30;;;;;;5016758;28;20038;-87
2022/03/07 04:28:00;;;;;;;19.75;12.15;;;6.00;49.40;;;;;;5025152;28;20172;-88
2022/03/07 04:30:27;;;;;;;19.35;13.05;;;6.00;48.90;;;;;;5015328;28;20121;-88
2022/03/07 04:32:52;;;;;;;19.88;13.18;;;5.90;49.50;;;;;;5029859;28;20068;-85
2022/03/07 04:35:18;;;;;;;18.77;12.63;;;5.80;49.20;;;;;;5010038;28;20482;-87
2022/03/07 04:37:44;;;;;;;16.52;12.57;;;5.80;49.60;;;;;;5023439;28;20034;-87
2022/03/07 04:40:16;;;;;;;19.52;13.27;;;5.80;49.50;;;;;;5001626;28;20460;-88
2022/03/07 04:42:43;;;;;;;20.35;12.68;;;5.90;50.40;;;;;;5014968;28;20063;-88
2022/03/07 04:45:13;;;;;;;17.92;11.50;;;6.00;50.10;;;;;;5016044;28;20037;-88
2022/03/07 04:47:40;;;;;;;20.90;13.50;;;6.00;49.30;;;;;;5017380;28;20116;-87
2022/03/07 04:50:06;;;;;;;21.10;13.35;;;6.00;49.90;;;;;;5028622;28;20061;-87
2022/03/07 04:52:33;;;;;;;20.20;12.07;;;5.90;49.90;;;;;;5034381;28;20029;-86
2022/03/07 04:54:59;;;;;;;18.20;13.30;;;5.80;50.00;;;;;;5034688;28;20536;-87
2022/03/07 04:57:26;;;;;;;17.90;12.27;;;5.90;49.60;;;;;;5008334;28;20520;-86
2022/03/07 04:59:51;;;;;;;19.50;12.70;;;5.90;50.10;;;;;;5004405;28;20034;-84
2022/03/07 05:02:17;;;;;;;20.88;12.77;;;5.90;50.70;;;;;;5015494;28;20037;-85
2022/03/07 05:04:43;;;;;;;20.77;13.38;;;5.80;49.90;;;;;;5018763;28;20448;-85
2022/03/07 05:07:09;;;;;;;19.30;13.02;;;5.80;50.40;;;;;;5015112;28;20210;-85
2022/03/07 05:09:35;;;;;;;19.80;13.77;;;5.80;50.20;;;;;;5004049;28;20043;-85
2022/03/07 05:12:00;;;;;;;21.23;12.85;;;5.70;50.20;;;;;;5005591;28;20062;-85
2022/03/07 05:14:26;;;;;;;17.13;11.38;;;5.70;50.90;;;;;;5011384;28;20537;-85
2022/03/07 05:16:52;;;;;;;17.55;12.98;;;5.70;50.00;;;;;;5007107;28;20113;-85
2022/03/07 05:19:18;;;;;;;19.92;13.25;;;5.70;50.20;;;;;;5014539;28;20076;-85
2022/03/07 05:21:44;;;;;;;19.63;11.75;;;5.60;50.30;;;;;;4999875;28;20042;-85
2022/03/07 05:24:09;;;;;;;18.27;11.23;;;5.60;50.60;;;;;;4992746;28;20037;-84
2022/03/07 05:26:36;;;;;;;18.13;10.98;;;5.60;50.60;;;;;;5008652;28;20106;-84
2022/03/07 05:29:03;;;;;;;17.95;10.80;;;5.60;51.10;;;;;;5000489;28;20045;-86
2022/03/07 05:31:29;;;;;;;19.63;12.13;;;5.80;50.00;;;;;;5009588;28;20042;-85
2022/03/07 05:33:55;;;;;;;20.58;11.82;;;5.80;49.80;;;;;;5000265;28;20045;-85
2022/03/07 05:36:21;;;;;;;19.55;11.85;;;5.80;50.50;;;;;;5014602;28;20450;-88
2022/03/07 05:38:46;;;;;;;17.85;11.60;;;5.80;49.80;;;;;;5019173;28;20041;-86
2022/03/07 05:41:12;;;;;;;20.25;13.15;;;5.80;49.70;;;;;;5019189;28;20034;-88
2022/03/07 05:43:38;;;;;;;20.00;12.30;;;5.70;50.10;;;;;;5009373;28;20042;-87
2022/03/07 05:46:03;;;;;;;20.92;12.50;;;5.70;50.00;;;;;;5005519;28;20512;-84
2022/03/07 05:48:29;;;;;;;29.33;12.60;;;5.70;50.50;;;;;;5017546;28;20092;-86
2022/03/07 05:50:55;;;;;;;18.83;12.77;;;5.70;50.60;;;;;;5002663;28;20516;-86
2022/03/07 05:53:23;;;;;;;19.83;12.45;;;5.50;50.60;;;;;;5019764;28;20445;-86
2022/03/07 06:00:59;;;;;;;20.27;13.23;;;5.50;50.60;;;;;;5080540;23;20045;-84
2022/03/07 06:03:25;;;;;;;18.15;11.88;;;5.40;51.10;;;;;;4992736;28;20046;-85
2022/03/07 06:05:50;;;;;;;22.40;13.85;;;5.50;50.70;;;;;;5008232;28;20035;-87
2022/03/07 06:08:17;;;;;;;18.77;11.88;;;5.50;50.30;;;;;;5005623;28;20065;-87
2022/03/07 06:10:43;;;;;;;18.80;13.27;;;5.50;50.50;;;;;;4996092;28;20051;-86
2022/03/07 06:13:08;;;;;;;22.50;12.07;;;5.50;50.00;;;;;;4995849;28;20042;-86
2022/03/07 06:15:35;;;;;;;18.80;12.32;;;5.60;49.90;;;;;;5009542;28;20034;-86
2022/03/07 06:18:00;;;;;;;22.15;13.18;;;5.70;50.50;;;;;;5012532;28;20065;-86
2022/03/07 06:20:26;;;;;;;25.00;13.82;;;5.70;50.60;;;;;;5004261;28;20080;-87
2022/03/07 06:22:52;;;;;;;20.83;12.18;;;5.80;50.60;;;;;;5001270;28;20097;-86
2022/03/07 06:25:18;;;;;;;20.75;13.45;;;5.70;49.70;;;;;;5009472;28;20037;-84
2022/03/07 06:27:44;;;;;;;21.73;14.07;;;5.70;50.20;;;;;;5034830;28;20578;-86
2022/03/07 06:30:10;;;;;;;24.45;14.85;;;5.80;50.00;;;;;;5028791;28;20029;-86
2022/03/07 06:32:36;;;;;;;26.10;15.05;;;5.70;50.20;;;;;;5026603;28;20062;-87
2022/03/07 06:35:03;;;;;;;24.45;12.73;;;5.70;50.00;;;;;;5027452;28;20037;-86
2022/03/07 06:37:29;;;;;;;20.02;13.43;;;5.70;49.90;;;;;;5030325;28;20030;-87
2022/03/07 06:39:54;;;;;;;23.60;13.75;;;5.70;50.40;;;;;;5013840;28;20038;-85
2022/03/07 06:42:20;;;;;;;22.08;13.23;;;5.80;50.90;;;;;;5010777;28;20038;-87
2022/03/07 06:44:46;;;;;;;25.15;13.20;;;5.80;50.70;;;;;;5010115;28;20041;-86
2022/03/07 06:47:12;;;;;;;26.45;15.35;;;5.90;50.10;;;;;;5011614;28;20555;-85
2022/03/07 06:49:39;;;;;;;23.17;14.90;;;5.90;49.70;;;;;;4995236;28;20045;-85
2022/03/07 06:52:05;;;;;;;18.92;13.35;;;5.70;50.70;;;;;;5011948;28;20126;-87
2022/03/07 06:54:30;;;;;;;23.70;14.40;;;5.80;50.60;;;;;;5008608;28;20504;-86
2022/03/07 06:56:56;;;;;;;21.60;14.05;;;5.80;50.40;;;;;;5010027;28;20033;-89
2022/03/07 06:59:22;;;;;;;25.10;14.77;;;5.90;50.90;;;;;;5025708;28;20508;-88
2022/03/07 07:01:48;;;;;;;25.35;15.27;;;5.90;50.70;;;;;;5016739;28;20398;-88
2022/03/07 07:04:13;;;;;;;23.27;13.40;;;5.90;49.90;;;;;;4999072;28;20535;-87
2022/03/07 07:06:39;;;;;;;19.90;12.80;;;6.00;51.00;;;;;;5016921;28;20113;-89
2022/03/07 07:09:04;;;;;;;19.02;11.52;;;6.20;50.90;;;;;;5005344;28;20355;-88
2022/03/07 07:11:30;;;;;;;22.75;13.25;;;6.40;51.70;;;;;;4985467;28;20562;-87
2022/03/07 07:13:56;;;;;;;24.13;14.27;;;6.60;50.30;;;;;;5017707;28;20386;-86
2022/03/07 07:16:21;;;;;;;25.02;15.18;;;6.50;49.80;;;;;;5007444;28;20038;-86
2022/03/07 07:18:47;;;;;;;24.38;13.90;;;6.50;49.90;;;;;;5004196;28;20034;-86
2022/03/07 07:21:13;;;;;;;28.73;14.98;;;6.40;50.10;;;;;;5010560;28;20034;-88
2022/03/07 07:23:39;;;;;;;23.02;14.25;;;6.50;50.70;;;;;;4992362;28;20034;-88
2022/03/07 07:26:05;;;;;;;20.42;13.40;;;6.50;49.80;;;;;;4995716;28;20046;-87
2022/03/07 07:28:31;;;;;;;20.10;13.70;;;6.60;50.00;;;;;;5005896;28;20045;-88
2022/03/07 07:30:57;;;;;;;18.88;13.18;;;6.60;49.50;;;;;;4996079;28;20038;-87
2022/03/07 07:33:22;;;;;;;21.45;13.20;;;6.70;50.00;;;;;;5010311;28;20068;-87
2022/03/07 07:35:48;;;;;;;27.00;13.23;;;6.80;48.60;;;;;;5009078;28;20430;-87
2022/03/07 07:38:14;;;;;;;20.90;13.38;;;6.80;48.20;;;;;;4999928;28;20042;-86
2022/03/07 07:40:40;;;;;;;20.58;13.60;;;6.80;48.30;;;;;;4996390;28;20039;-87
2022/03/07 07:43:06;;;;;;;19.58;12.50;;;6.90;49.10;;;;;;5011054;28;20037;-87
2022/03/07 07:45:32;;;;;;;19.50;13.27;;;6.90;48.60;;;;;;5004938;28;20109;-87
2022/03/07 07:48:00;;;;;;;17.30;12.35;;;7.10;49.00;;;;;;4999810;28;20382;-87
2022/03/07 07:50:27;;;;;;;16.85;11.63;;;7.20;48.10;;;;;;4978626;28;20049;-87
2022/03/07 07:53:08;;;;;;;17.88;12.43;;;7.20;48.70;;;;;;4982398;28;20029;-87
2022/03/07 07:55:34;;;;;;;17.63;12.90;;;7.30;48.90;;;;;;4997797;28;20038;-87
2022/03/07 07:58:00;;;;;;;20.58;12.60;;;7.40;47.80;;;;;;5015561;28;20034;-87
2022/03/07 08:00:27;;;;;;;17.92;12.27;;;7.50;47.60;;;;;;5015261;28;20482;-87
2022/03/07 08:02:53;;;;;;;18.38;12.60;;;7.50;46.70;;;;;;5015190;28;20112;-87
2022/03/07 08:05:19;;;;;;;20.98;12.48;;;7.60;47.80;;;;;;5016962;28;20430;-89
2022/03/07 08:07:46;;;;;;;17.58;12.80;;;7.80;47.90;;;;;;5019535;28;20040;-89
2022/03/07 08:10:13;;;;;;;17.95;12.57;;;7.90;47.40;;;;;;5005898;28;20463;-89
2022/03/07 08:12:39;;;;;;;22.65;13.55;;;8.00;47.50;;;;;;5004399;28;20037;-88
2022/03/07 08:15:06;;;;;;;21.25;14.13;;;8.10;46.30;;;;;;5008688;28;20433;-88
2022/03/07 08:17:32;;;;;;;20.35;13.13;;;8.20;46.60;;;;;;4999099;28;20062;-88
2022/03/07 08:19:58;;;;;;;17.42;11.07;;;8.30;46.50;;;;;;4996986;28;20077;-89
2022/03/07 08:22:24;;;;;;;17.83;12.43;;;8.40;48.00;;;;;;5016748;28;20591;-88
2022/03/07 08:24:49;;;;;;;17.40;12.43;;;8.50;46.00;;;;;;5016855;28;20046;-86
2022/03/07 08:27:15;;;;;;;17.98;13.57;;;8.50;45.70;;;;;;5018230;28;20038;-87
2022/03/07 08:29:41;;;;;;;19.77;12.95;;;8.70;46.00;;;;;;4999008;28;20136;-87
2022/03/07 08:32:07;;;;;;;24.60;14.25;;;8.70;45.00;;;;;;5013056;28;20048;-86
2022/03/07 08:34:32;;;;;;;19.15;13.20;;;8.90;44.20;;;;;;5009471;28;20493;-86
2022/03/07 08:36:58;;;;;;;17.40;12.52;;;8.90;43.80;;;;;;5014771;28;20021;-90
2022/03/07 08:39:25;;;;;;;20.27;13.10;;;9.00;44.20;;;;;;5014262;28;20052;-86
2022/03/07 08:41:51;;;;;;;21.10;14.60;;;9.20;43.90;;;;;;4994895;28;20125;-86
2022/03/07 08:44:17;;;;;;;17.98;12.90;;;9.20;42.40;;;;;;5009715;28;20671;-86
2022/03/07 08:46:42;;;;;;;20.50;13.68;;;9.40;42.30;;;;;;5014116;28;20426;-85
2022/03/07 08:49:08;;;;;;;17.83;13.30;;;9.50;42.00;;;;;;5013463;28;20111;-86
2022/03/07 08:51:34;;;;;;;18.15;13.75;;;9.60;41.30;;;;;;4991864;28;20034;-86
2022/03/07 08:53:59;;;;;;;19.20;13.93;;;9.80;41.70;;;;;;5005795;28;20050;-85
2022/03/07 08:56:25;;;;;;;18.95;14.48;;;9.90;41.00;;;;;;5007709;28;20041;-86
2022/03/07 08:58:51;;;;;;;18.10;14.20;;;10.10;41.30;;;;;;4994945;28;20051;-85
2022/03/07 09:01:18;;;;;;;18.17;13.23;;;10.00;39.60;;;;;;4994753;28;20534;-85
2022/03/07 09:03:45;;;;;;;18.15;12.30;;;10.10;38.60;;;;;;4993015;28;20091;-84
2022/03/07 09:06:11;;;;;;;19.00;12.70;;;10.20;38.50;;;;;;5011676;28;20049;-84
2022/03/07 09:08:39;;;;;;;18.77;13.23;;;10.30;39.50;;;;;;5009950;28;20050;-85
2022/03/07 09:11:06;;;;;;;17.80;12.80;;;10.40;37.20;;;;;;4977174;28;20031;-85
2022/03/07 09:13:33;;;;;;;17.27;12.10;;;10.60;37.50;;;;;;5008473;28;20045;-84
2022/03/07 09:15:59;;;;;;;16.10;13.25;;;10.70;37.80;;;;;;4995047;28;20058;-85
2022/03/07 09:18:26;;;;;;;20.27;13.95;;;10.90;38.40;;;;;;5000431;28;20073;-86
2022/03/07 09:20:51;;;;;;;17.40;13.10;;;10.80;38.40;;;;;;4976382;28;20105;-85
2022/03/07 09:23:17;;;;;;;18.92;14.02;;;10.90;38.40;;;;;;5004916;28;20423;-83
2022/03/07 09:25:43;;;;;;;17.10;13.82;;;10.80;37.20;;;;;;4992533;28;20166;-85
2022/03/07 09:28:09;;;;;;;21.30;14.63;;;10.90;37.70;;;;;;4997581;28;20038;-85
2022/03/07 09:30:34;;;;;;;19.25;15.63;;;11.00;37.60;;;;;;4994657;28;20494;-85
2022/03/07 09:33:03;;;;;;;21.55;16.67;;;10.90;37.40;;;;;;5002594;28;20070;-85
2022/03/07 09:35:32;;;;;;;21.73;16.20;;;10.90;38.00;;;;;;5011124;28;20038;-85
2022/03/07 09:37:58;;;;;;;17.55;13.93;;;11.00;37.20;;;;;;5012141;28;20112;-84
2022/03/07 09:40:25;;;;;;;19.50;14.32;;;11.10;37.10;;;;;;5012842;28;20117;-84
2022/03/07 09:42:52;;;;;;;18.65;14.23;;;11.30;37.10;;;;;;4996056;28;20719;-85
2022/03/07 09:45:18;;;;;;;18.45;14.65;;;11.50;36.70;;;;;;5018058;28;20082;-85
2022/03/07 09:47:45;;;;;;;22.25;14.85;;;11.60;36.30;;;;;;5012027;28;20147;-85
2022/03/07 09:50:11;;;;;;;20.00;15.82;;;11.70;36.10;;;;;;4991043;28;20037;-85
2022/03/07 09:52:37;;;;;;;18.98;14.63;;;11.60;36.10;;;;;;5012850;28;20100;-85
2022/03/07 09:55:04;;;;;;;17.70;12.70;;;11.70;36.40;;;;;;4991598;28;20050;-86
2022/03/07 09:57:32;;;;;;;20.40;15.02;;;11.90;37.80;;;;;;5022498;28;20492;-86
2022/03/07 09:59:58;;;;;;;19.30;14.65;;;12.10;37.10;;;;;;5014681;28;20135;-84
2022/03/07 10:02:28;;;;;;;21.77;17.08;;;12.00;38.10;;;;;;5019945;28;20486;-86
2022/03/07 10:05:00;;;;;;;21.02;14.68;;;12.10;37.50;;;;;;5018961;28;20046;-85
2022/03/07 10:07:26;;;;;;;22.38;14.57;;;12.30;38.30;;;;;;5019316;28;20092;-83
2022/03/07 10:10:08;;;;;;;18.10;13.18;;;12.20;38.00;;;;;;5018891;28;20042;-83
2022/03/07 10:12:34;;;;;;;18.73;14.13;;;12.40;37.80;;;;;;5000650;28;20041;-85
2022/03/07 10:15:16;;;;;;;18.50;14.93;;;12.60;36.50;;;;;;5020468;28;20034;-84
2022/03/07 10:17:50;;;;;;;21.38;14.85;;;12.80;36.00;;;;;;4998853;28;20568;-85
2022/03/07 10:20:19;;;;;;;18.15;14.65;;;12.70;37.50;;;;;;5024937;28;20029;-85
2022/03/07 10:22:48;;;;;;;17.48;14.32;;;12.80;35.60;;;;;;5029462;28;20057;-86
2022/03/07 10:25:14;;;;;;;19.30;13.80;;;12.80;38.40;;;;;;5032996;28;20084;-85
2022/03/07 10:27:50;;;;;;;19.02;15.25;;;13.10;36.90;;;;;;5018185;28;20104;-84
2022/03/07 10:30:22;;;;;;;19.20;14.23;;;13.30;36.60;;;;;;5021814;28;20098;-85
2022/03/07 10:32:59;;;;;;;15.73;13.65;;;12.90;36.80;;;;;;5001985;28;20048;-83
2022/03/07 10:35:29;;;;;;;21.45;17.70;;;13.30;36.80;;;;;;5017666;28;20038;-83
2022/03/07 10:38:04;;;;;;;31.38;18.00;;;13.40;33.30;;;;;;5019582;28;20072;-84
2022/03/07 10:40:31;;;;;;;19.33;16.05;;;12.90;33.50;;;;;;5001581;28;20038;-84
2022/03/07 10:43:01;;;;;;;16.27;13.35;;;12.50;34.20;;;;;;5019946;28;20037;-85
2022/03/07 10:45:29;;;;;;;23.35;14.93;;;12.70;36.80;;;;;;5019565;28;20038;-83
2022/03/07 10:48:02;;;;;;;18.75;14.52;;;13.10;38.00;;;;;;5009719;28;20026;-83
2022/03/07 10:50:31;;;;;;;18.88;14.60;;;13.60;36.50;;;;;;5009952;28;20060;-82
2022/03/07 10:53:04;;;;;;;22.08;15.48;;;13.80;35.40;;;;;;5029620;28;20034;-84
2022/03/07 10:55:32;;;;;;;18.92;15.45;;;14.00;34.40;;;;;;5028271;28;20046;-84
2022/03/07 10:58:08;;;;;;;20.05;15.40;;;14.10;33.90;;;;;;5018997;28;20041;-83
2022/03/07 11:00:46;;;;;;;19.63;14.80;;;14.10;33.60;;;;;;4985486;28;20056;-84
2022/03/07 11:03:23;;;;;;;21.60;15.57;;;14.20;32.90;;;;;;5018792;28;20080;-84
2022/03/07 11:05:49;;;;;;;21.13;14.57;;;14.20;33.50;;;;;;4987522;28;20312;-84
2022/03/07 11:08:17;;;;;;;22.13;14.00;;;14.10;35.10;;;;;;4998727;28;20518;-84
2022/03/07 11:10:48;;;;;;;24.30;15.15;;;14.30;35.40;;;;;;4993049;28;20359;-86
2022/03/07 11:13:15;;;;;;;19.83;14.23;;;14.50;32.30;;;;;;5011109;28;20034;-85
2022/03/07 11:15:43;;;;;;;22.52;16.08;;;14.60;33.50;;;;;;4998615;28;20113;-84
2022/03/07 11:18:11;;;;;;;19.73;15.35;;;14.40;32.60;;;;;;5003009;28;20027;-85
2022/03/07 11:20:41;;;;;;;19.30;15.18;;;14.50;33.70;;;;;;5012748;28;20050;-86
2022/03/07 11:23:08;;;;;;;19.30;15.20;;;14.70;33.10;;;;;;5011437;28;20749;-86
2022/03/07 11:25:34;;;;;;;24.50;16.25;;;14.90;31.40;;;;;;5018668;28;20094;-85
2022/03/07 11:28:01;;;;;;;19.55;15.82;;;15.00;31.40;;;;;;5011585;28;20030;-86
2022/03/07 11:30:36;;;;;;;21.80;16.75;;;14.90;30.50;;;;;;5004480;28;20122;-85
2022/03/07 11:33:19;;;;;;;17.65;14.23;;;14.60;32.10;;;;;;4999714;28;20034;-85
2022/03/07 11:35:46;;;;;;;21.27;15.65;;;14.70;32.30;;;;;;4985409;28;20466;-85
2022/03/07 11:38:17;;;;;;;16.63;13.95;;;14.90;32.10;;;;;;5000650;28;20081;-84
2022/03/07 11:41:09;;;;;;;21.38;16.48;;;15.20;31.80;;;;;;4994770;28;20041;-84
2022/03/07 11:43:50;;;;;;;17.58;14.70;;;15.10;31.30;;;;;;5001269;28;20042;-84
2022/03/07 11:46:29;;;;;;;20.52;14.35;;;15.30;30.00;;;;;;5011558;28;20057;-84
2022/03/07 11:48:55;;;;;;;19.77;14.90;;;15.30;30.40;;;;;;4998608;28;20100;-84
2022/03/07 11:51:25;;;;;;;19.42;14.77;;;15.70;31.40;;;;;;5012032;28;20088;-84
2022/03/07 11:53:53;;;;;;;19.42;15.27;;;16.10;30.90;;;;;;4987377;28;20214;-83
2022/03/07 11:56:23;;;;;;;17.83;14.07;;;16.40;29.90;;;;;;5004414;28;20037;-84
2022/03/07 11:58:55;;;;;;;20.73;15.77;;;16.80;29.30;;;;;;4981569;28;20356;-84
2022/03/07 12:01:23;;;;;;;21.23;16.30;;;17.00;28.50;;;;;;5000049;28;20474;-85
2022/03/07 12:03:49;;;;;;;19.67;16.08;;;17.20;28.90;;;;;;5001919;28;20027;-85
2022/03/07 12:06:17;;;;;;;19.63;15.68;;;17.30;28.00;;;;;;5001219;28;20046;-84
2022/03/07 12:08:46;;;;;;;22.52;16.17;;;17.70;29.20;;;;;;4995927;28;20046;-85
2022/03/07 12:11:27;;;;;;;22.95;16.45;;;18.00;27.10;;;;;;4998738;28;20053;-86
2022/03/07 12:13:54;;;;;;;23.85;16.98;;;17.80;27.60;;;;;;4990516;28;20038;-85
2022/03/07 12:16:40;;;;;;;23.17;17.27;;;17.40;28.50;;;;;;4998283;28;20049;-85
2022/03/07 12:19:19;;;;;;;18.08;15.48;;;16.80;27.60;;;;;;4977921;28;20058;-84
2022/03/07 12:21:46;;;;;;;22.73;16.10;;;16.80;28.80;;;;;;4998347;28;20101;-85
2022/03/07 12:24:15;;;;;;;17.95;15.45;;;17.70;29.20;;;;;;5008175;28;20110;-83
2022/03/07 12:26:44;;;;;;;18.25;15.43;;;18.10;27.10;;;;;;5010268;28;20069;-84
2022/03/07 12:29:10;;;;;;;25.48;16.70;;;17.80;27.30;;;;;;4990197;28;20030;-84
2022/03/07 12:31:36;;;;;;;19.55;16.15;;;17.70;26.90;;;;;;5013937;28;20502;-84
2022/03/07 12:34:04;;;;;;;20.42;16.83;;;17.90;27.60;;;;;;5002707;28;20123;-85
2022/03/07 12:36:30;;;;;;;23.20;17.20;;;17.80;26.90;;;;;;4995109;28;20471;-85
2022/03/07 12:39:00;;;;;;;22.02;16.85;;;17.50;28.30;;;;;;5005854;28;20062;-85